sensor_id;sensor_type;location;lat;lon;timestamp;P1;durP1;ratioP1;P2;durP2;ratioP2
28834;SDS011;15969;51.536;11.884;2023-04-12T00:01:05;2.43;;;1.70;;
28834;SDS011;15969;51.536;11.884;2023-04-12T00:03:31;2.67;;;1.87;;
28834;SDS011;15969;51.536;11.884;2023-04-12T00:05:58;3.07;;;1.60;;
28834;SDS011;15969;51.536;11.884;2023-04-12T00:08:27;3.73;;;1.87;;
28834;SDS011;15969;51.536;11.884;2023-04-12T00:10:56;4.80;;;2.03;;
28834;SDS011;15969;51.536;11.884;2023-04-12T00:13:26;1.93;;;1.70;;
28834;SDS011;15969;51.536;11.884;2023-04-12T00:15:52;2.23;;;1.77;;
28834;SDS011;15969;51.536;11.884;2023-04-12T00:18:18;2.50;;;1.80;;
28834;SDS011;15969;51.536;11.884;2023-04-12T00:20:43;4.23;;;1.73;;
28834;SDS011;15969;51.536;11.884;2023-04-12T00:23:09;2.50;;;1.87;;
28834;SDS011;15969;51.536;11.884;2023-04-12T00:25:36;2.20;;;1.73;;
28834;SDS011;15969;51.536;11.884;2023-04-12T00:28:03;3.60;;;1.83;;
28834;SDS011;15969;51.536;11.884;2023-04-12T00:30:29;2.03;;;1.50;;
28834;SDS011;15969;51.536;11.884;2023-04-12T00:32:55;2.40;;;1.77;;
28834;SDS011;15969;51.536;11.884;2023-04-12T00:35:21;2.03;;;1.43;;
28834;SDS011;15969;51.536;11.884;2023-04-12T00:37:47;2.93;;;1.80;;
28834;SDS011;15969;51.536;11.884;2023-04-12T00:40:14;1.83;;;1.70;;
28834;SDS011;15969;51.536;11.884;2023-04-12T00:42:40;1.77;;;1.60;;
28834;SDS011;15969;51.536;11.884;2023-04-12T00:45:05;2.50;;;1.80;;
28834;SDS011;15969;51.536;11.884;2023-04-12T00:47:34;3.73;;;2.00;;
28834;SDS011;15969;51.536;11.884;2023-04-12T00:50:01;2.17;;;1.73;;
28834;SDS011;15969;51.536;11.884;2023-04-12T00:52:28;2.97;;;1.93;;
28834;SDS011;15969;51.536;11.884;2023-04-12T00:54:58;5.53;;;2.50;;
28834;SDS011;15969;51.536;11.884;2023-04-12T00:57:34;2.63;;;1.90;;
28834;SDS011;15969;51.536;11.884;2023-04-12T01:00:03;4.83;;;2.10;;
28834;SDS011;15969;51.536;11.884;2023-04-12T01:02:32;2.10;;;1.90;;
28834;SDS011;15969;51.536;11.884;2023-04-12T01:04:58;4.13;;;2.20;;
28834;SDS011;15969;51.536;11.884;2023-04-12T01:10:36;3.77;;;2.30;;
28834;SDS011;15969;51.536;11.884;2023-04-12T01:13:15;3.70;;;2.30;;
28834;SDS011;15969;51.536;11.884;2023-04-12T01:16:05;3.47;;;2.60;;
28834;SDS011;15969;51.536;11.884;2023-04-12T01:18:50;3.17;;;2.87;;
28834;SDS011;15969;51.536;11.884;2023-04-12T01:21:28;3.80;;;2.83;;
28834;SDS011;15969;51.536;11.884;2023-04-12T01:26:53;3.10;;;2.30;;
28834;SDS011;15969;51.536;11.884;2023-04-12T01:29:24;4.03;;;2.43;;
28834;SDS011;15969;51.536;11.884;2023-04-12T01:31:53;2.83;;;2.37;;
28834;SDS011;15969;51.536;11.884;2023-04-12T01:34:24;4.07;;;2.13;;
28834;SDS011;15969;51.536;11.884;2023-04-12T01:36:52;4.20;;;2.50;;
28834;SDS011;15969;51.536;11.884;2023-04-12T01:39:21;5.13;;;3.10;;
28834;SDS011;15969;51.536;11.884;2023-04-12T01:41:47;4.20;;;3.40;;
28834;SDS011;15969;51.536;11.884;2023-04-12T01:44:16;6.33;;;3.80;;
28834;SDS011;15969;51.536;11.884;2023-04-12T01:46:43;4.73;;;4.20;;
28834;SDS011;15969;51.536;11.884;2023-04-12T01:49:11;6.30;;;4.73;;
28834;SDS011;15969;51.536;11.884;2023-04-12T01:54:36;5.17;;;4.30;;
28834;SDS011;15969;51.536;11.884;2023-04-12T01:57:03;7.50;;;4.70;;
28834;SDS011;15969;51.536;11.884;2023-04-12T01:59:39;6.13;;;4.30;;
28834;SDS011;15969;51.536;11.884;2023-04-12T02:02:06;7.43;;;4.37;;
28834;SDS011;15969;51.536;11.884;2023-04-12T02:04:33;4.70;;;3.60;;
28834;SDS011;15969;51.536;11.884;2023-04-12T02:07:00;4.00;;;3.47;;
28834;SDS011;15969;51.536;11.884;2023-04-12T02:09:26;4.57;;;3.80;;
28834;SDS011;15969;51.536;11.884;2023-04-12T02:11:52;5.67;;;3.57;;
28834;SDS011;15969;51.536;11.884;2023-04-12T02:14:18;4.77;;;3.77;;
28834;SDS011;15969;51.536;11.884;2023-04-12T02:16:44;4.67;;;3.43;;
28834;SDS011;15969;51.536;11.884;2023-04-12T02:19:10;7.50;;;3.60;;
28834;SDS011;15969;51.536;11.884;2023-04-12T02:21:40;4.40;;;3.70;;
28834;SDS011;15969;51.536;11.884;2023-04-12T02:24:09;4.83;;;3.53;;
28834;SDS011;15969;51.536;11.884;2023-04-12T02:26:36;6.63;;;3.93;;
28834;SDS011;15969;51.536;11.884;2023-04-12T02:29:03;4.63;;;3.87;;
28834;SDS011;15969;51.536;11.884;2023-04-12T02:31:33;5.10;;;4.60;;
28834;SDS011;15969;51.536;11.884;2023-04-12T02:34:00;4.53;;;4.13;;
28834;SDS011;15969;51.536;11.884;2023-04-12T02:36:26;5.90;;;4.27;;
28834;SDS011;15969;51.536;11.884;2023-04-12T02:38:52;4.73;;;3.83;;
28834;SDS011;15969;51.536;11.884;2023-04-12T02:41:18;6.03;;;4.57;;
28834;SDS011;15969;51.536;11.884;2023-04-12T02:43:45;5.23;;;4.10;;
28834;SDS011;15969;51.536;11.884;2023-04-12T02:46:14;5.80;;;4.10;;
28834;SDS011;15969;51.536;11.884;2023-04-12T02:48:43;6.17;;;4.00;;
28834;SDS011;15969;51.536;11.884;2023-04-12T02:51:12;5.10;;;4.13;;
28834;SDS011;15969;51.536;11.884;2023-04-12T02:53:38;4.83;;;3.93;;
28834;SDS011;15969;51.536;11.884;2023-04-12T02:56:04;4.27;;;3.60;;
28834;SDS011;15969;51.536;11.884;2023-04-12T02:58:30;4.50;;;3.80;;
28834;SDS011;15969;51.536;11.884;2023-04-12T03:01:00;4.80;;;4.30;;
28834;SDS011;15969;51.536;11.884;2023-04-12T03:03:26;4.50;;;3.93;;
28834;SDS011;15969;51.536;11.884;2023-04-12T03:05:55;5.13;;;4.20;;
28834;SDS011;15969;51.536;11.884;2023-04-12T03:08:22;6.23;;;4.17;;
28834;SDS011;15969;51.536;11.884;2023-04-12T03:10:48;6.87;;;3.97;;
28834;SDS011;15969;51.536;11.884;2023-04-12T03:13:13;4.73;;;3.43;;
28834;SDS011;15969;51.536;11.884;2023-04-12T03:15:39;4.13;;;3.33;;
28834;SDS011;15969;51.536;11.884;2023-04-12T03:18:07;4.00;;;3.60;;
28834;SDS011;15969;51.536;11.884;2023-04-12T03:20:33;6.90;;;4.07;;
28834;SDS011;15969;51.536;11.884;2023-04-12T03:22:59;8.50;;;3.70;;
28834;SDS011;15969;51.536;11.884;2023-04-12T03:25:25;3.87;;;3.30;;
28834;SDS011;15969;51.536;11.884;2023-04-12T03:27:51;4.87;;;3.67;;
28834;SDS011;15969;51.536;11.884;2023-04-12T03:30:17;4.77;;;4.03;;
28834;SDS011;15969;51.536;11.884;2023-04-12T03:32:42;5.73;;;3.90;;
28834;SDS011;15969;51.536;11.884;2023-04-12T03:35:08;4.67;;;3.73;;
28834;SDS011;15969;51.536;11.884;2023-04-12T03:37:35;5.70;;;4.13;;
28834;SDS011;15969;51.536;11.884;2023-04-12T03:40:01;7.53;;;4.33;;
28834;SDS011;15969;51.536;11.884;2023-04-12T03:42:27;6.53;;;4.10;;
28834;SDS011;15969;51.536;11.884;2023-04-12T03:44:53;5.43;;;3.60;;
28834;SDS011;15969;51.536;11.884;2023-04-12T03:47:19;7.17;;;4.33;;
28834;SDS011;15969;51.536;11.884;2023-04-12T03:49:45;5.13;;;3.77;;
28834;SDS011;15969;51.536;11.884;2023-04-12T03:52:11;6.40;;;3.83;;
28834;SDS011;15969;51.536;11.884;2023-04-12T03:54:37;7.37;;;4.27;;
28834;SDS011;15969;51.536;11.884;2023-04-12T03:57:03;5.80;;;4.40;;
28834;SDS011;15969;51.536;11.884;2023-04-12T03:59:29;7.47;;;4.83;;
28834;SDS011;15969;51.536;11.884;2023-04-12T04:01:55;5.37;;;4.10;;
28834;SDS011;15969;51.536;11.884;2023-04-12T04:04:21;7.30;;;4.10;;
28834;SDS011;15969;51.536;11.884;2023-04-12T04:06:47;6.23;;;4.30;;
28834;SDS011;15969;51.536;11.884;2023-04-12T04:09:13;5.37;;;4.37;;
28834;SDS011;15969;51.536;11.884;2023-04-12T04:11:39;5.53;;;4.17;;
28834;SDS011;15969;51.536;11.884;2023-04-12T04:14:05;5.17;;;3.87;;
28834;SDS011;15969;51.536;11.884;2023-04-12T04:16:32;5.10;;;4.03;;
28834;SDS011;15969;51.536;11.884;2023-04-12T04:18:57;5.33;;;3.97;;
28834;SDS011;15969;51.536;11.884;2023-04-12T04:21:23;4.67;;;4.07;;
28834;SDS011;15969;51.536;11.884;2023-04-12T04:23:49;6.23;;;4.00;;
28834;SDS011;15969;51.536;11.884;2023-04-12T04:26:16;4.60;;;3.70;;
28834;SDS011;15969;51.536;11.884;2023-04-12T04:28:42;6.40;;;4.00;;
28834;SDS011;15969;51.536;11.884;2023-04-12T04:31:12;6.77;;;4.17;;
28834;SDS011;15969;51.536;11.884;2023-04-12T04:33:38;6.90;;;3.90;;
28834;SDS011;15969;51.536;11.884;2023-04-12T04:36:04;4.77;;;3.77;;
28834;SDS011;15969;51.536;11.884;2023-04-12T04:38:33;6.37;;;4.13;;
28834;SDS011;15969;51.536;11.884;2023-04-12T04:41:00;8.57;;;3.80;;
28834;SDS011;15969;51.536;11.884;2023-04-12T04:43:27;5.10;;;4.63;;
28834;SDS011;15969;51.536;11.884;2023-04-12T04:45:57;6.00;;;4.10;;
28834;SDS011;15969;51.536;11.884;2023-04-12T04:48:23;5.10;;;3.87;;
28834;SDS011;15969;51.536;11.884;2023-04-12T04:50:49;5.93;;;4.23;;
28834;SDS011;15969;51.536;11.884;2023-04-12T04:53:18;5.90;;;3.80;;
28834;SDS011;15969;51.536;11.884;2023-04-12T04:55:46;4.87;;;3.63;;
28834;SDS011;15969;51.536;11.884;2023-04-12T04:58:12;4.43;;;3.43;;
28834;SDS011;15969;51.536;11.884;2023-04-12T05:00:38;6.67;;;3.50;;
28834;SDS011;15969;51.536;11.884;2023-04-12T05:03:04;5.20;;;3.40;;
28834;SDS011;15969;51.536;11.884;2023-04-12T05:05:30;5.13;;;4.03;;
28834;SDS011;15969;51.536;11.884;2023-04-12T05:07:56;5.60;;;3.73;;
28834;SDS011;15969;51.536;11.884;2023-04-12T05:10:22;5.37;;;3.20;;
28834;SDS011;15969;51.536;11.884;2023-04-12T05:12:48;7.37;;;3.73;;
28834;SDS011;15969;51.536;11.884;2023-04-12T05:15:14;7.40;;;3.97;;
28834;SDS011;15969;51.536;11.884;2023-04-12T05:17:40;7.87;;;4.23;;
28834;SDS011;15969;51.536;11.884;2023-04-12T05:20:06;4.50;;;3.50;;
28834;SDS011;15969;51.536;11.884;2023-04-12T05:22:33;9.53;;;3.60;;
28834;SDS011;15969;51.536;11.884;2023-04-12T05:24:59;4.80;;;3.20;;
28834;SDS011;15969;51.536;11.884;2023-04-12T05:27:25;4.77;;;3.83;;
28834;SDS011;15969;51.536;11.884;2023-04-12T05:29:53;5.47;;;3.53;;
28834;SDS011;15969;51.536;11.884;2023-04-12T05:32:21;6.50;;;3.23;;
28834;SDS011;15969;51.536;11.884;2023-04-12T05:34:48;5.60;;;3.37;;
28834;SDS011;15969;51.536;11.884;2023-04-12T05:37:14;4.70;;;3.70;;
28834;SDS011;15969;51.536;11.884;2023-04-12T05:39:39;4.50;;;3.33;;
28834;SDS011;15969;51.536;11.884;2023-04-12T05:42:05;3.37;;;2.87;;
28834;SDS011;15969;51.536;11.884;2023-04-12T05:44:33;5.57;;;3.77;;
28834;SDS011;15969;51.536;11.884;2023-04-12T05:46:59;4.63;;;2.90;;
28834;SDS011;15969;51.536;11.884;2023-04-12T05:49:27;7.40;;;3.50;;
28834;SDS011;15969;51.536;11.884;2023-04-12T05:51:56;9.13;;;3.37;;
28834;SDS011;15969;51.536;11.884;2023-04-12T05:54:22;5.60;;;3.00;;
28834;SDS011;15969;51.536;11.884;2023-04-12T05:56:49;6.03;;;3.20;;
28834;SDS011;15969;51.536;11.884;2023-04-12T05:59:16;3.83;;;2.90;;
28834;SDS011;15969;51.536;11.884;2023-04-12T06:01:43;7.60;;;3.23;;
28834;SDS011;15969;51.536;11.884;2023-04-12T06:04:09;5.03;;;3.40;;
28834;SDS011;15969;51.536;11.884;2023-04-12T06:06:35;4.30;;;2.90;;
28834;SDS011;15969;51.536;11.884;2023-04-12T06:09:00;7.20;;;2.80;;
28834;SDS011;15969;51.536;11.884;2023-04-12T06:11:28;4.73;;;2.83;;
28834;SDS011;15969;51.536;11.884;2023-04-12T06:13:54;4.33;;;2.90;;
28834;SDS011;15969;51.536;11.884;2023-04-12T06:16:20;3.67;;;3.00;;
28834;SDS011;15969;51.536;11.884;2023-04-12T06:18:45;3.80;;;3.33;;
28834;SDS011;15969;51.536;11.884;2023-04-12T06:21:11;3.70;;;2.93;;
28834;SDS011;15969;51.536;11.884;2023-04-12T06:23:37;5.77;;;3.40;;
28834;SDS011;15969;51.536;11.884;2023-04-12T06:26:03;7.00;;;2.93;;
28834;SDS011;15969;51.536;11.884;2023-04-12T06:28:29;3.93;;;2.53;;
28834;SDS011;15969;51.536;11.884;2023-04-12T06:30:54;3.50;;;2.67;;
28834;SDS011;15969;51.536;11.884;2023-04-12T06:33:20;5.53;;;2.83;;
28834;SDS011;15969;51.536;11.884;2023-04-12T06:35:47;6.67;;;2.53;;
28834;SDS011;15969;51.536;11.884;2023-04-12T06:38:13;5.47;;;2.80;;
28834;SDS011;15969;51.536;11.884;2023-04-12T06:40:38;5.03;;;2.97;;
28834;SDS011;15969;51.536;11.884;2023-04-12T06:43:04;5.23;;;3.27;;
28834;SDS011;15969;51.536;11.884;2023-04-12T06:45:30;5.13;;;3.10;;
28834;SDS011;15969;51.536;11.884;2023-04-12T06:47:55;6.03;;;3.03;;
28834;SDS011;15969;51.536;11.884;2023-04-12T06:50:21;4.77;;;2.80;;
28834;SDS011;15969;51.536;11.884;2023-04-12T06:52:47;8.87;;;3.30;;
28834;SDS011;15969;51.536;11.884;2023-04-12T06:55:13;8.43;;;3.10;;
28834;SDS011;15969;51.536;11.884;2023-04-12T06:57:42;8.07;;;3.10;;
28834;SDS011;15969;51.536;11.884;2023-04-12T07:00:09;5.47;;;2.93;;
28834;SDS011;15969;51.536;11.884;2023-04-12T07:02:35;5.57;;;3.33;;
28834;SDS011;15969;51.536;11.884;2023-04-12T07:05:02;4.23;;;2.50;;
28834;SDS011;15969;51.536;11.884;2023-04-12T07:07:29;7.73;;;3.20;;
28834;SDS011;15969;51.536;11.884;2023-04-12T07:09:55;5.57;;;2.90;;
28834;SDS011;15969;51.536;11.884;2023-04-12T07:12:20;5.20;;;2.97;;
28834;SDS011;15969;51.536;11.884;2023-04-12T07:14:46;6.00;;;3.03;;
28834;SDS011;15969;51.536;11.884;2023-04-12T07:17:12;3.53;;;2.53;;
28834;SDS011;15969;51.536;11.884;2023-04-12T07:19:38;7.07;;;2.93;;
28834;SDS011;15969;51.536;11.884;2023-04-12T07:22:05;5.47;;;2.63;;
28834;SDS011;15969;51.536;11.884;2023-04-12T07:24:31;4.07;;;2.80;;
28834;SDS011;15969;51.536;11.884;2023-04-12T07:26:57;6.27;;;3.03;;
28834;SDS011;15969;51.536;11.884;2023-04-12T07:29:23;3.77;;;2.50;;
28834;SDS011;15969;51.536;11.884;2023-04-12T07:31:49;8.93;;;3.00;;
28834;SDS011;15969;51.536;11.884;2023-04-12T07:34:14;5.93;;;3.20;;
28834;SDS011;15969;51.536;11.884;2023-04-12T07:36:40;3.77;;;2.83;;
28834;SDS011;15969;51.536;11.884;2023-04-12T07:39:07;4.03;;;2.60;;
28834;SDS011;15969;51.536;11.884;2023-04-12T07:41:35;5.40;;;3.10;;
28834;SDS011;15969;51.536;11.884;2023-04-12T07:44:06;7.37;;;3.10;;
28834;SDS011;15969;51.536;11.884;2023-04-12T07:46:31;6.93;;;2.77;;
28834;SDS011;15969;51.536;11.884;2023-04-12T07:48:57;5.17;;;2.57;;
28834;SDS011;15969;51.536;11.884;2023-04-12T07:51:23;10.00;;;2.73;;
28834;SDS011;15969;51.536;11.884;2023-04-12T07:53:49;5.27;;;2.53;;
28834;SDS011;15969;51.536;11.884;2023-04-12T07:56:15;3.93;;;2.20;;
28834;SDS011;15969;51.536;11.884;2023-04-12T07:58:41;5.43;;;2.80;;
28834;SDS011;15969;51.536;11.884;2023-04-12T08:01:06;6.50;;;2.43;;
28834;SDS011;15969;51.536;11.884;2023-04-12T08:03:32;5.37;;;2.73;;
28834;SDS011;15969;51.536;11.884;2023-04-12T08:05:58;4.00;;;2.40;;
28834;SDS011;15969;51.536;11.884;2023-04-12T08:08:24;4.50;;;2.90;;
28834;SDS011;15969;51.536;11.884;2023-04-12T08:10:50;11.97;;;3.40;;
28834;SDS011;15969;51.536;11.884;2023-04-12T08:13:16;5.53;;;2.30;;
28834;SDS011;15969;51.536;11.884;2023-04-12T08:15:42;6.77;;;2.53;;
28834;SDS011;15969;51.536;11.884;2023-04-12T08:18:08;5.07;;;2.17;;
28834;SDS011;15969;51.536;11.884;2023-04-12T08:20:34;4.07;;;2.10;;
28834;SDS011;15969;51.536;11.884;2023-04-12T08:23:00;5.47;;;2.40;;
28834;SDS011;15969;51.536;11.884;2023-04-12T08:25:26;5.77;;;2.67;;
28834;SDS011;15969;51.536;11.884;2023-04-12T08:27:51;6.13;;;2.20;;
28834;SDS011;15969;51.536;11.884;2023-04-12T08:30:17;4.87;;;2.40;;
28834;SDS011;15969;51.536;11.884;2023-04-12T08:32:43;7.87;;;2.30;;
28834;SDS011;15969;51.536;11.884;2023-04-12T08:35:09;4.33;;;2.30;;
28834;SDS011;15969;51.536;11.884;2023-04-12T08:37:35;7.17;;;2.83;;
28834;SDS011;15969;51.536;11.884;2023-04-12T08:40:03;6.70;;;2.37;;
28834;SDS011;15969;51.536;11.884;2023-04-12T08:42:31;10.00;;;2.87;;
28834;SDS011;15969;51.536;11.884;2023-04-12T08:45:03;6.37;;;2.63;;
28834;SDS011;15969;51.536;11.884;2023-04-12T08:47:40;8.23;;;2.47;;
28834;SDS011;15969;51.536;11.884;2023-04-12T08:50:07;6.43;;;2.33;;
28834;SDS011;15969;51.536;11.884;2023-04-12T08:52:37;4.27;;;2.13;;
28834;SDS011;15969;51.536;11.884;2023-04-12T08:55:03;3.67;;;2.33;;
28834;SDS011;15969;51.536;11.884;2023-04-12T08:57:30;3.83;;;2.33;;
28834;SDS011;15969;51.536;11.884;2023-04-12T08:59:59;6.37;;;2.63;;
28834;SDS011;15969;51.536;11.884;2023-04-12T09:02:26;6.33;;;2.57;;
28834;SDS011;15969;51.536;11.884;2023-04-12T09:04:52;6.20;;;2.43;;
28834;SDS011;15969;51.536;11.884;2023-04-12T09:07:20;5.77;;;2.40;;
28834;SDS011;15969;51.536;11.884;2023-04-12T09:09:52;5.57;;;2.23;;
28834;SDS011;15969;51.536;11.884;2023-04-12T09:12:18;3.47;;;2.30;;
28834;SDS011;15969;51.536;11.884;2023-04-12T09:14:47;5.40;;;2.67;;
28834;SDS011;15969;51.536;11.884;2023-04-12T09:17:29;7.57;;;2.70;;
28834;SDS011;15969;51.536;11.884;2023-04-12T09:19:56;4.40;;;2.50;;
28834;SDS011;15969;51.536;11.884;2023-04-12T09:22:34;7.70;;;2.50;;
28834;SDS011;15969;51.536;11.884;2023-04-12T09:25:04;4.53;;;2.00;;
28834;SDS011;15969;51.536;11.884;2023-04-12T09:27:44;4.53;;;2.50;;
28834;SDS011;15969;51.536;11.884;2023-04-12T09:30:11;7.43;;;2.50;;
28834;SDS011;15969;51.536;11.884;2023-04-12T09:32:39;4.47;;;2.03;;
28834;SDS011;15969;51.536;11.884;2023-04-12T09:35:05;7.80;;;2.33;;
28834;SDS011;15969;51.536;11.884;2023-04-12T09:37:31;4.50;;;1.77;;
28834;SDS011;15969;51.536;11.884;2023-04-12T09:40:01;3.47;;;2.07;;
28834;SDS011;15969;51.536;11.884;2023-04-12T09:42:29;4.07;;;2.00;;
28834;SDS011;15969;51.536;11.884;2023-04-12T09:44:55;3.73;;;1.87;;
28834;SDS011;15969;51.536;11.884;2023-04-12T09:47:37;5.60;;;2.10;;
28834;SDS011;15969;51.536;11.884;2023-04-12T09:50:05;5.83;;;2.07;;
28834;SDS011;15969;51.536;11.884;2023-04-12T09:52:38;5.93;;;2.10;;
28834;SDS011;15969;51.536;11.884;2023-04-12T09:55:10;4.23;;;2.30;;
28834;SDS011;15969;51.536;11.884;2023-04-12T09:57:37;13.90;;;2.97;;
28834;SDS011;15969;51.536;11.884;2023-04-12T10:00:06;5.53;;;2.13;;
28834;SDS011;15969;51.536;11.884;2023-04-12T10:02:39;6.70;;;2.20;;
28834;SDS011;15969;51.536;11.884;2023-04-12T10:05:07;4.57;;;1.90;;
28834;SDS011;15969;51.536;11.884;2023-04-12T10:07:38;3.60;;;1.93;;
28834;SDS011;15969;51.536;11.884;2023-04-12T10:10:11;9.70;;;2.33;;
28834;SDS011;15969;51.536;11.884;2023-04-12T10:12:39;3.63;;;2.13;;
28834;SDS011;15969;51.536;11.884;2023-04-12T10:15:06;3.23;;;1.97;;
28834;SDS011;15969;51.536;11.884;2023-04-12T10:17:40;5.60;;;2.30;;
28834;SDS011;15969;51.536;11.884;2023-04-12T10:20:09;4.70;;;2.37;;
28834;SDS011;15969;51.536;11.884;2023-04-12T10:22:39;4.83;;;1.70;;
28834;SDS011;15969;51.536;11.884;2023-04-12T10:25:14;5.00;;;1.80;;
28834;SDS011;15969;51.536;11.884;2023-04-12T10:27:44;6.33;;;2.47;;
28834;SDS011;15969;51.536;11.884;2023-04-12T10:30:27;5.07;;;1.80;;
28834;SDS011;15969;51.536;11.884;2023-04-12T10:35:29;5.00;;;1.83;;
28834;SDS011;15969;51.536;11.884;2023-04-12T10:38:16;3.30;;;1.60;;
28834;SDS011;15969;51.536;11.884;2023-04-12T10:41:25;2.43;;;1.93;;
28834;SDS011;15969;51.536;11.884;2023-04-12T10:43:38;5.53;;;1.80;;
28834;SDS011;15969;51.536;11.884;2023-04-12T10:46:45;4.20;;;1.77;;
28834;SDS011;15969;51.536;11.884;2023-04-12T10:49:09;4.67;;;1.63;;
28834;SDS011;15969;51.536;11.884;2023-04-12T10:51:36;3.43;;;1.70;;
28834;SDS011;15969;51.536;11.884;2023-04-12T10:56:41;3.33;;;1.50;;
28834;SDS011;15969;51.536;11.884;2023-04-12T10:59:16;3.30;;;1.67;;
28834;SDS011;15969;51.536;11.884;2023-04-12T11:02:28;4.37;;;1.60;;
28834;SDS011;15969;51.536;11.884;2023-04-12T11:04:28;4.10;;;1.50;;
28834;SDS011;15969;51.536;11.884;2023-04-12T11:06:55;4.57;;;1.60;;
28834;SDS011;15969;51.536;11.884;2023-04-12T11:11:57;4.50;;;1.63;;
28834;SDS011;15969;51.536;11.884;2023-04-12T11:14:43;3.37;;;1.50;;
28834;SDS011;15969;51.536;11.884;2023-04-12T11:19:41;4.20;;;1.67;;
28834;SDS011;15969;51.536;11.884;2023-04-12T11:22:12;4.90;;;2.07;;
28834;SDS011;15969;51.536;11.884;2023-04-12T11:24:41;6.33;;;1.97;;
28834;SDS011;15969;51.536;11.884;2023-04-12T11:27:09;2.43;;;1.47;;
28834;SDS011;15969;51.536;11.884;2023-04-12T11:29:35;3.90;;;1.83;;
28834;SDS011;15969;51.536;11.884;2023-04-12T11:32:02;11.13;;;2.07;;
28834;SDS011;15969;51.536;11.884;2023-04-12T11:34:32;3.80;;;1.53;;
28834;SDS011;15969;51.536;11.884;2023-04-12T11:36:58;3.00;;;1.60;;
28834;SDS011;15969;51.536;11.884;2023-04-12T11:39:25;3.83;;;1.77;;
28834;SDS011;15969;51.536;11.884;2023-04-12T11:41:52;4.03;;;1.50;;
28834;SDS011;15969;51.536;11.884;2023-04-12T11:44:18;2.70;;;1.73;;
28834;SDS011;15969;51.536;11.884;2023-04-12T11:46:45;3.43;;;1.67;;
28834;SDS011;15969;51.536;11.884;2023-04-12T11:49:15;3.07;;;1.40;;
28834;SDS011;15969;51.536;11.884;2023-04-12T11:51:42;6.83;;;1.80;;
28834;SDS011;15969;51.536;11.884;2023-04-12T11:54:09;4.17;;;1.97;;
28834;SDS011;15969;51.536;11.884;2023-04-12T11:56:36;4.60;;;1.50;;
28834;SDS011;15969;51.536;11.884;2023-04-12T11:59:02;4.60;;;1.30;;
28834;SDS011;15969;51.536;11.884;2023-04-12T12:01:29;2.70;;;1.43;;
28834;SDS011;15969;51.536;11.884;2023-04-12T12:03:56;1.70;;;1.37;;
28834;SDS011;15969;51.536;11.884;2023-04-12T12:06:23;3.87;;;1.70;;
28834;SDS011;15969;51.536;11.884;2023-04-12T12:08:49;3.93;;;1.70;;
28834;SDS011;15969;51.536;11.884;2023-04-12T12:11:17;5.80;;;2.60;;
28834;SDS011;15969;51.536;11.884;2023-04-12T12:13:48;3.97;;;1.70;;
28834;SDS011;15969;51.536;11.884;2023-04-12T12:16:15;2.83;;;1.83;;
28834;SDS011;15969;51.536;11.884;2023-04-12T12:18:42;3.97;;;1.90;;
28834;SDS011;15969;51.536;11.884;2023-04-12T12:21:11;3.40;;;1.50;;
28834;SDS011;15969;51.536;11.884;2023-04-12T12:23:38;2.83;;;1.50;;
28834;SDS011;15969;51.536;11.884;2023-04-12T12:26:18;3.97;;;1.90;;
28834;SDS011;15969;51.536;11.884;2023-04-12T12:28:55;1.73;;;1.53;;
28834;SDS011;15969;51.536;11.884;2023-04-12T12:31:25;3.20;;;1.60;;
28834;SDS011;15969;51.536;11.884;2023-04-12T12:33:56;2.07;;;1.60;;
28834;SDS011;15969;51.536;11.884;2023-04-12T12:36:33;4.50;;;1.93;;
28834;SDS011;15969;51.536;11.884;2023-04-12T12:39:06;3.53;;;2.00;;
28834;SDS011;15969;51.536;11.884;2023-04-12T12:41:34;4.30;;;2.07;;
28834;SDS011;15969;51.536;11.884;2023-04-12T12:44:00;3.00;;;2.07;;
28834;SDS011;15969;51.536;11.884;2023-04-12T12:46:26;1.97;;;1.70;;
28834;SDS011;15969;51.536;11.884;2023-04-12T12:48:53;3.57;;;2.03;;
28834;SDS011;15969;51.536;11.884;2023-04-12T12:51:19;3.63;;;1.87;;
28834;SDS011;15969;51.536;11.884;2023-04-12T12:53:44;4.37;;;1.97;;
28834;SDS011;15969;51.536;11.884;2023-04-12T12:56:11;3.40;;;2.10;;
28834;SDS011;15969;51.536;11.884;2023-04-12T12:58:38;3.73;;;2.63;;
28834;SDS011;15969;51.536;11.884;2023-04-12T13:01:04;3.13;;;2.70;;
28834;SDS011;15969;51.536;11.884;2023-04-12T13:03:30;3.40;;;2.63;;
28834;SDS011;15969;51.536;11.884;2023-04-12T13:05:57;5.60;;;2.60;;
28834;SDS011;15969;51.536;11.884;2023-04-12T13:08:23;4.20;;;2.33;;
28834;SDS011;15969;51.536;11.884;2023-04-12T13:10:49;3.83;;;2.10;;
28834;SDS011;15969;51.536;11.884;2023-04-12T13:13:16;3.40;;;2.30;;
28834;SDS011;15969;51.536;11.884;2023-04-12T13:15:43;2.90;;;2.10;;
28834;SDS011;15969;51.536;11.884;2023-04-12T13:18:11;2.20;;;1.93;;
28834;SDS011;15969;51.536;11.884;2023-04-12T13:20:39;2.83;;;2.50;;
28834;SDS011;15969;51.536;11.884;2023-04-12T13:23:05;4.10;;;2.23;;
28834;SDS011;15969;51.536;11.884;2023-04-12T13:25:31;4.67;;;3.13;;
28834;SDS011;15969;51.536;11.884;2023-04-12T13:27:56;4.97;;;2.33;;
28834;SDS011;15969;51.536;11.884;2023-04-12T13:30:22;5.00;;;3.00;;
28834;SDS011;15969;51.536;11.884;2023-04-12T13:32:48;5.93;;;3.07;;
28834;SDS011;15969;51.536;11.884;2023-04-12T13:35:13;3.23;;;2.93;;
28834;SDS011;15969;51.536;11.884;2023-04-12T13:37:39;5.27;;;3.10;;
28834;SDS011;15969;51.536;11.884;2023-04-12T13:40:06;4.07;;;3.10;;
28834;SDS011;15969;51.536;11.884;2023-04-12T13:42:33;3.27;;;2.77;;
28834;SDS011;15969;51.536;11.884;2023-04-12T13:44:58;3.57;;;3.10;;
28834;SDS011;15969;51.536;11.884;2023-04-12T13:47:25;4.57;;;3.13;;
28834;SDS011;15969;51.536;11.884;2023-04-12T13:49:51;4.93;;;3.10;;
28834;SDS011;15969;51.536;11.884;2023-04-12T13:52:18;3.43;;;2.60;;
28834;SDS011;15969;51.536;11.884;2023-04-12T13:54:44;2.70;;;2.20;;
28834;SDS011;15969;51.536;11.884;2023-04-12T13:57:10;3.10;;;2.60;;
28834;SDS011;15969;51.536;11.884;2023-04-12T13:59:36;2.90;;;2.43;;
28834;SDS011;15969;51.536;11.884;2023-04-12T14:02:01;3.10;;;2.40;;
28834;SDS011;15969;51.536;11.884;2023-04-12T14:04:27;3.57;;;2.33;;
28834;SDS011;15969;51.536;11.884;2023-04-12T14:06:55;3.00;;;2.50;;
28834;SDS011;15969;51.536;11.884;2023-04-12T14:09:24;2.80;;;2.43;;
28834;SDS011;15969;51.536;11.884;2023-04-12T14:11:55;4.37;;;2.20;;
28834;SDS011;15969;51.536;11.884;2023-04-12T14:14:23;4.63;;;2.53;;
28834;SDS011;15969;51.536;11.884;2023-04-12T14:16:51;3.27;;;2.07;;
28834;SDS011;15969;51.536;11.884;2023-04-12T14:19:21;4.00;;;2.40;;
28834;SDS011;15969;51.536;11.884;2023-04-12T14:21:47;2.37;;;2.17;;
28834;SDS011;15969;51.536;11.884;2023-04-12T14:24:14;3.73;;;2.60;;
28834;SDS011;15969;51.536;11.884;2023-04-12T14:26:40;5.83;;;2.60;;
28834;SDS011;15969;51.536;11.884;2023-04-12T14:29:06;2.47;;;2.27;;
28834;SDS011;15969;51.536;11.884;2023-04-12T14:31:33;3.90;;;2.80;;
28834;SDS011;15969;51.536;11.884;2023-04-12T14:34:00;3.80;;;2.63;;
28834;SDS011;15969;51.536;11.884;2023-04-12T14:36:26;3.27;;;2.40;;
28834;SDS011;15969;51.536;11.884;2023-04-12T14:38:52;2.77;;;2.40;;
28834;SDS011;15969;51.536;11.884;2023-04-12T14:41:19;3.00;;;2.60;;
28834;SDS011;15969;51.536;11.884;2023-04-12T14:43:44;3.90;;;2.70;;
28834;SDS011;15969;51.536;11.884;2023-04-12T14:46:10;5.13;;;2.90;;
28834;SDS011;15969;51.536;11.884;2023-04-12T14:48:36;3.33;;;2.53;;
28834;SDS011;15969;51.536;11.884;2023-04-12T14:51:02;4.17;;;2.70;;
28834;SDS011;15969;51.536;11.884;2023-04-12T14:53:28;3.53;;;2.70;;
28834;SDS011;15969;51.536;11.884;2023-04-12T14:55:55;3.13;;;2.63;;